createdAt,value
2022-12-19T20:31:44.614Z,20.99
2022-12-19T20:32:44.380Z,20.96
2022-12-19T20:33:47.666Z,20.93
2022-12-19T20:34:44.289Z,20.90
2022-12-19T20:35:44.186Z,20.90
2022-12-19T20:36:44.001Z,20.89
2022-12-19T20:37:44.025Z,20.88
2022-12-19T20:38:43.910Z,20.89
2022-12-19T20:39:46.581Z,20.88
2022-12-19T20:40:43.819Z,20.88
2022-12-19T20:41:44.437Z,20.92
2022-12-19T20:42:44.140Z,20.92
2022-12-19T20:43:44.291Z,20.93
2022-12-19T20:44:43.442Z,20.93
2022-12-19T20:45:43.465Z,20.90
2022-12-19T20:46:44.003Z,20.90
2022-12-19T20:47:43.152Z,20.91
2022-12-19T20:48:43.071Z,20.92
2022-12-19T20:49:42.853Z,20.91
2022-12-19T20:50:43.704Z,20.92
2022-12-19T20:51:42.678Z,20.92
2022-12-19T20:52:42.580Z,20.92
2022-12-19T20:53:42.468Z,20.93
2022-12-19T20:54:43.189Z,20.94
2022-12-19T21:12:29.991Z,20.26
2022-12-19T21:13:30.520Z,20.22
2022-12-19T21:14:29.940Z,20.16
2022-12-19T21:15:29.724Z,20.07
2022-12-19T21:16:30.009Z,20.01
2022-12-19T21:17:29.413Z,19.95
2022-12-19T21:23:01.911Z,19.74
2022-12-19T21:34:04.688Z,17.19
2022-12-19T22:17:58.479Z,19.03
2022-12-19T22:28:58.049Z,19.04
2022-12-19T22:29:57.656Z,19.04
2022-12-19T22:30:57.559Z,19.04
2022-12-19T22:31:57.670Z,19.04
2022-12-19T22:32:57.459Z,19.03
2022-12-19T22:33:57.361Z,19.03
2022-12-19T22:34:57.266Z,19.03
2022-12-19T22:35:57.692Z,19.04
2022-12-19T22:36:57.198Z,19.04
2022-12-19T22:37:57.185Z,19.05
2022-12-19T22:38:57.121Z,19.05
2022-12-19T22:40:56.906Z,19.05
2022-12-19T22:41:56.824Z,19.05
2022-12-19T22:42:58.657Z,19.04
2022-12-19T22:43:56.842Z,19.04
2022-12-19T22:44:56.748Z,19.04
2022-12-19T22:45:58.309Z,19.03
2022-12-19T22:46:56.652Z,19.03
2022-12-19T22:47:56.558Z,19.03
2022-12-19T22:48:57.277Z,19.02
2022-12-19T22:49:56.451Z,19.03
2022-12-19T22:50:56.365Z,19.02
2022-12-19T22:51:56.764Z,19.02
2022-12-19T22:52:56.272Z,19.03
2022-12-19T22:53:56.186Z,19.02
2022-12-19T22:54:56.284Z,19.02
2022-12-19T22:55:56.081Z,19.02
2022-12-19T22:56:55.974Z,19.02
2022-12-19T22:57:56.289Z,19.01
2022-12-19T22:58:56.294Z,19.01
2022-12-19T22:59:55.791Z,19.01
2022-12-19T23:00:55.798Z,19.00
2022-12-19T23:01:56.029Z,19.00
2022-12-19T23:02:55.777Z,19.01
2022-12-19T23:03:55.971Z,19.01
2022-12-19T23:04:55.820Z,19.02
2022-12-19T23:05:55.447Z,19.01
2022-12-19T23:06:55.330Z,19.00
2022-12-19T23:07:56.265Z,19.00
2022-12-19T23:08:55.247Z,19.00
2022-12-19T23:09:55.155Z,19.00
2022-12-19T23:10:55.263Z,18.99
2022-12-19T23:11:55.275Z,18.98
2022-12-19T23:12:54.979Z,18.98
2022-12-19T23:13:54.862Z,18.99
2022-12-19T23:14:54.764Z,18.99
2022-12-19T23:15:54.770Z,18.98
2022-12-19T23:16:54.832Z,18.97
2022-12-19T23:17:54.615Z,18.97
2022-12-19T23:18:55.234Z,18.97
2022-12-19T23:19:54.392Z,18.97
2022-12-19T23:20:54.835Z,18.96
2022-12-19T23:21:55.328Z,18.95
2022-12-19T23:22:54.204Z,18.95
2022-12-19T23:23:54.114Z,18.95
2022-12-19T23:25:55.766Z,18.95
2022-12-19T23:26:53.953Z,18.95
2022-12-19T23:27:55.817Z,18.95
2022-12-19T23:28:53.859Z,18.95
2022-12-19T23:29:53.738Z,18.95
2022-12-19T23:30:54.287Z,18.95
2022-12-19T23:31:53.689Z,18.94
2022-12-19T23:32:53.562Z,18.95
2022-12-19T23:33:53.811Z,18.95
2022-12-19T23:34:53.774Z,18.94
2022-12-19T23:35:53.410Z,18.95
2022-12-19T23:37:21.838Z,18.95
2022-12-19T23:37:54.207Z,18.94
2022-12-19T23:38:53.184Z,18.94
2022-12-19T23:39:53.095Z,18.94
2022-12-19T23:40:53.010Z,18.93
2022-12-19T23:41:53.331Z,18.93
2022-12-19T23:42:52.933Z,18.93
2022-12-19T23:43:52.852Z,18.93
2022-12-19T23:44:52.611Z,18.93
2022-12-19T23:45:52.787Z,18.94
2022-12-19T23:47:02.320Z,18.95
2022-12-19T23:47:55.217Z,18.93
2022-12-19T23:48:52.364Z,18.93
2022-12-19T23:49:54.187Z,18.92
2022-12-19T23:50:52.256Z,18.92
2022-12-19T23:51:52.148Z,18.91
2022-12-19T23:52:52.173Z,18.92
2022-12-19T23:53:52.782Z,18.91
2022-12-19T23:54:51.972Z,18.90
2022-12-19T23:55:51.895Z,18.91
2022-12-19T23:56:51.894Z,18.91
2022-12-19T23:57:52.213Z,18.91
2022-12-19T23:58:51.716Z,18.90
2022-12-19T23:59:51.601Z,18.92
